createdAt,value
2022-10-09T00:02:18.920Z,24.15
2022-10-09T00:07:11.920Z,25.50
2022-10-09T00:12:05.600Z,28.23
2022-10-09T00:16:59.805Z,28.67
2022-10-09T00:21:53.325Z,28.08
2022-10-09T00:26:48.510Z,30.48
2022-10-09T00:31:42.729Z,31.15
2022-10-09T00:36:36.240Z,29.38
2022-10-09T00:46:29.077Z,24.25
2022-10-09T00:51:23.534Z,26.67
2022-10-09T00:56:17.878Z,24.02
2022-10-09T01:01:13.150Z,28.23
2022-10-09T01:06:44.729Z,28.27
2022-10-09T01:12:00.070Z,32.58
2022-10-09T01:17:35.900Z,33.20
2022-10-09T01:23:13.641Z,33.10
2022-10-09T01:28:07.669Z,35.45
2022-10-09T01:33:02.105Z,36.08
2022-10-09T01:37:57.108Z,37.55
2022-10-09T01:42:51.699Z,38.10
2022-10-09T01:47:45.797Z,40.53
2022-10-09T01:52:56.424Z,38.38
2022-10-09T01:58:01.391Z,42.33
2022-10-09T02:02:55.868Z,35.58
2022-10-09T02:07:50.421Z,39.53
2022-10-09T02:12:48.736Z,40.58
2022-10-09T02:17:46.077Z,39.03
2022-10-09T02:22:40.164Z,39.92
2022-10-09T02:27:34.164Z,41.55
2022-10-09T02:32:27.216Z,42.50
2022-10-09T02:37:21.308Z,44.35
2022-10-09T02:42:15.440Z,44.75
2022-10-09T02:47:09.945Z,45.42
2022-10-09T02:52:04.474Z,45.85
2022-10-09T02:56:58.082Z,46.50
2022-10-09T03:01:51.702Z,45.25
2022-10-09T03:06:44.767Z,45.38
2022-10-09T03:11:38.779Z,44.92
2022-10-09T03:16:33.459Z,45.30
2022-10-09T03:21:29.076Z,45.88
2022-10-09T03:26:27.805Z,42.63
2022-10-09T03:31:47.056Z,42.17
2022-10-09T03:36:37.242Z,39.53
2022-10-09T03:41:31.228Z,40.53
2022-10-09T03:46:25.561Z,41.00
2022-10-09T03:51:19.741Z,42.67
2022-10-09T03:56:13.756Z,44.15
2022-10-09T04:01:08.193Z,42.75
2022-10-09T04:06:01.922Z,42.85
2022-10-09T04:10:59.288Z,46.10
2022-10-09T04:15:54.586Z,44.45
2022-10-09T04:20:55.594Z,44.10
2022-10-09T04:25:48.633Z,45.95
2022-10-09T04:40:30.424Z,47.50
2022-10-09T04:45:24.310Z,50.42
2022-10-09T04:50:18.388Z,50.63
2022-10-09T04:55:24.059Z,49.85
2022-10-09T05:00:18.517Z,49.78
2022-10-09T05:05:11.778Z,51.00
2022-10-09T05:10:08.801Z,50.13
2022-10-09T05:15:02.748Z,50.85
2022-10-09T05:19:57.145Z,48.58
2022-10-09T05:24:50.964Z,50.10
2022-10-09T05:29:45.338Z,48.92
2022-10-09T05:34:38.051Z,49.97
2022-10-09T05:39:33.271Z,49.97
2022-10-09T05:44:28.477Z,48.22
2022-10-09T05:49:23.639Z,47.35
2022-10-09T05:54:18.817Z,47.05
2022-10-09T05:59:20.253Z,47.85
2022-10-09T06:04:16.377Z,49.33
2022-10-09T06:09:11.926Z,46.92
2022-10-09T06:14:07.060Z,47.65
2022-10-09T06:19:01.645Z,49.85
2022-10-09T06:23:58.172Z,49.75
2022-10-09T06:28:52.247Z,45.80
2022-10-09T06:33:51.205Z,48.53
2022-10-09T06:38:44.764Z,49.03
2022-10-09T06:43:38.880Z,50.88
2022-10-09T06:48:32.591Z,53.63
2022-10-09T06:53:26.174Z,53.30
2022-10-09T06:58:20.308Z,55.35
2022-10-09T07:03:14.113Z,53.10
2022-10-09T07:08:07.710Z,57.15
2022-10-09T07:13:02.008Z,56.63
2022-10-09T07:17:55.880Z,56.67
2022-10-09T07:22:49.559Z,57.53
2022-10-09T07:27:43.636Z,57.13
2022-10-09T07:32:37.786Z,59.97
2022-10-09T07:37:32.247Z,66.60
2022-10-09T07:42:26.103Z,63.85
2022-10-09T07:47:21.122Z,65.35
2022-10-09T07:52:14.523Z,63.13
2022-10-09T07:57:08.921Z,61.15
2022-10-09T08:02:02.797Z,54.42
2022-10-09T08:06:58.864Z,52.08
2022-10-09T08:11:53.478Z,44.90
2022-10-09T08:16:48.084Z,40.10
2022-10-09T08:21:42.579Z,33.15
2022-10-09T08:26:36.670Z,32.40
2022-10-09T08:31:30.934Z,30.33
2022-10-09T08:36:25.465Z,31.13
2022-10-09T08:41:33.657Z,31.42
2022-10-09T08:46:33.457Z,33.65
2022-10-09T08:51:29.815Z,34.28
2022-10-09T08:56:27.804Z,35.60
2022-10-09T09:01:32.276Z,31.80
2022-10-09T09:06:44.877Z,29.10
2022-10-09T09:11:48.407Z,30.27
2022-10-09T09:16:57.991Z,31.23
2022-10-09T09:21:53.303Z,33.45
2022-10-09T09:26:51.166Z,33.38
2022-10-09T09:31:47.644Z,32.80
2022-10-09T09:36:53.196Z,31.05
2022-10-09T09:41:46.956Z,33.30
2022-10-09T09:46:41.568Z,36.88
2022-10-09T09:51:37.267Z,38.42
2022-10-09T10:02:18.816Z,36.83
2022-10-09T10:07:37.308Z,32.38
2022-10-09T10:12:30.608Z,32.55
2022-10-09T10:17:29.941Z,33.92
2022-10-09T10:22:28.920Z,32.38
2022-10-09T10:27:32.638Z,30.52
2022-10-09T10:32:37.322Z,31.58
2022-10-09T10:38:13.629Z,29.98
2022-10-09T10:43:10.266Z,29.20
2022-10-09T10:48:04.597Z,26.33
2022-10-09T10:53:25.684Z,23.13
2022-10-09T10:58:32.324Z,22.35
2022-10-09T11:03:25.573Z,20.58
2022-10-09T11:09:13.338Z,18.95
2022-10-09T11:14:20.012Z,19.77
2022-10-09T11:19:52.331Z,17.42
2022-10-09T11:24:48.473Z,17.02
2022-10-09T11:29:48.572Z,17.40
2022-10-09T11:35:03.063Z,17.45
2022-10-09T11:39:57.635Z,15.13
2022-10-09T11:44:51.127Z,15.70
2022-10-09T11:50:12.343Z,16.38
2022-10-09T11:55:24.692Z,14.77
2022-10-09T12:00:31.561Z,16.55
2022-10-09T12:05:30.261Z,15.60
2022-10-09T12:10:34.640Z,15.18
2022-10-09T12:15:41.195Z,16.65
2022-10-09T12:20:42.664Z,16.42
2022-10-09T12:25:45.471Z,17.73
2022-10-09T12:30:46.593Z,16.00
2022-10-09T12:35:47.316Z,14.60
2022-10-09T12:40:46.507Z,13.93
2022-10-09T12:45:45.950Z,14.20
2022-10-09T12:50:40.887Z,13.77
2022-10-09T12:56:06.525Z,13.55
2022-10-09T13:01:02.355Z,11.25
2022-10-09T13:05:57.788Z,11.98
2022-10-09T13:10:51.428Z,10.85
2022-10-09T13:15:44.916Z,10.15
2022-10-09T13:20:38.297Z,9.55
2022-10-09T13:25:39.449Z,8.05
2022-10-09T13:30:33.546Z,7.82
2022-10-09T13:35:31.451Z,7.55
2022-10-09T13:40:26.104Z,7.72
2022-10-09T13:45:26.453Z,7.63
2022-10-09T13:50:23.821Z,7.85
2022-10-09T13:55:21.538Z,7.68
2022-10-09T14:00:16.504Z,7.45
2022-10-09T14:05:11.775Z,7.30
2022-10-09T14:10:08.921Z,6.70
2022-10-09T14:15:06.454Z,5.38
2022-10-09T14:20:02.116Z,5.38
2022-10-09T14:24:57.276Z,4.80
2022-10-09T14:29:56.613Z,5.20
2022-10-09T14:34:51.324Z,4.80
2022-10-09T14:39:47.732Z,5.00
2022-10-09T14:44:42.741Z,4.65
2022-10-09T14:49:38.419Z,4.93
2022-10-09T14:54:32.802Z,4.45
2022-10-09T14:59:26.724Z,4.47
2022-10-09T15:04:20.849Z,4.47
2022-10-09T15:09:14.819Z,4.22
2022-10-09T15:14:11.297Z,3.85
2022-10-09T15:19:08.094Z,3.70
2022-10-09T15:24:04.950Z,4.22
2022-10-09T15:29:01.268Z,4.32
2022-10-09T15:33:58.609Z,5.40
2022-10-09T15:38:59.368Z,4.95
2022-10-09T15:43:56.377Z,6.20
2022-10-09T15:48:56.918Z,7.22
2022-10-09T15:54:00.876Z,6.63
2022-10-09T15:59:04.223Z,7.68
2022-10-09T16:09:04.464Z,8.48
2022-10-09T16:13:59.567Z,7.65
2022-10-09T16:18:53.828Z,7.95
2022-10-09T16:23:58.883Z,7.82
2022-10-09T16:29:04.755Z,7.80
2022-10-09T16:34:03.842Z,8.20
2022-10-09T16:39:00.626Z,8.38
2022-10-09T16:44:02.159Z,8.88
2022-10-09T16:48:59.670Z,8.70
2022-10-09T16:53:55.150Z,8.55
2022-10-09T16:58:50.967Z,8.82
2022-10-09T17:03:46.145Z,9.52
2022-10-09T17:08:45.948Z,9.30
2022-10-09T17:13:40.612Z,9.50
2022-10-09T17:18:34.325Z,8.05
2022-10-09T17:23:28.695Z,9.20
2022-10-09T17:28:22.718Z,10.02
2022-10-09T17:33:19.769Z,9.95
2022-10-09T17:38:13.537Z,10.43
2022-10-09T17:43:08.043Z,9.82
2022-10-09T17:48:02.221Z,10.48
2022-10-09T17:52:56.374Z,11.10
2022-10-09T17:57:49.750Z,10.32
2022-10-09T18:02:44.258Z,11.90
2022-10-09T18:07:38.543Z,11.52
2022-10-09T18:12:32.757Z,11.27
2022-10-09T18:17:30.661Z,11.07
2022-10-09T18:22:24.022Z,10.75
2022-10-09T18:32:10.622Z,11.32
2022-10-09T18:37:04.989Z,11.30
2022-10-09T18:41:59.175Z,10.70
2022-10-09T18:46:57.237Z,11.52
2022-10-09T18:51:51.128Z,10.80
2022-10-09T18:56:45.108Z,10.52
2022-10-09T19:01:39.424Z,11.77
2022-10-09T19:06:33.276Z,15.73
2022-10-09T19:11:27.293Z,15.43
2022-10-09T19:16:25.054Z,16.52
2022-10-09T19:21:19.485Z,15.55
2022-10-09T19:26:14.004Z,16.90
2022-10-09T19:31:10.171Z,18.05
2022-10-09T19:36:04.503Z,18.08
2022-10-09T19:41:04.951Z,17.42
2022-10-09T19:46:18.924Z,19.10
2022-10-09T19:51:14.890Z,18.70
2022-10-09T19:56:21.361Z,20.33
2022-10-09T20:01:16.406Z,22.40
2022-10-09T20:06:11.208Z,25.58
2022-10-09T20:11:05.404Z,24.80
2022-10-09T20:16:02.715Z,23.85
2022-10-09T20:21:00.389Z,23.45
2022-10-09T20:26:03.948Z,21.92
2022-10-09T20:35:51.894Z,24.40
2022-10-09T20:40:51.711Z,24.63
2022-10-09T20:45:50.394Z,23.52
2022-10-09T20:50:56.353Z,23.30
2022-10-09T20:55:50.807Z,26.65
2022-10-09T21:00:59.759Z,27.77
2022-10-09T21:05:56.122Z,25.90
2022-10-09T21:10:55.253Z,26.77
2022-10-09T21:15:53.592Z,26.35
2022-10-09T21:20:49.466Z,26.85
2022-10-09T21:25:53.902Z,28.02
2022-10-09T21:30:47.292Z,25.95
2022-10-09T21:35:45.621Z,29.15
2022-10-09T21:40:39.829Z,25.75
2022-10-09T21:45:34.068Z,27.98
2022-10-09T21:50:27.844Z,25.73
2022-10-09T21:55:23.428Z,26.38
2022-10-09T22:00:17.570Z,25.23
2022-10-09T22:05:11.528Z,24.77
2022-10-09T22:10:06.955Z,26.73
2022-10-09T22:15:00.542Z,27.65
2022-10-09T22:19:54.071Z,25.88
2022-10-09T22:24:47.976Z,26.30
2022-10-09T22:29:42.259Z,26.17
2022-10-09T22:34:39.461Z,27.45
2022-10-09T22:39:33.530Z,28.60
2022-10-09T22:44:28.115Z,27.65
2022-10-09T22:49:22.347Z,29.52
2022-10-09T22:54:16.446Z,30.50
2022-10-09T22:59:12.345Z,32.95
2022-10-09T23:04:08.372Z,33.78
2022-10-09T23:09:04.310Z,34.05
2022-10-09T23:13:59.445Z,34.05
2022-10-09T23:18:53.405Z,32.67
2022-10-09T23:23:47.508Z,34.10
2022-10-09T23:28:41.657Z,34.08
2022-10-09T23:33:36.012Z,34.05
2022-10-09T23:38:29.341Z,29.20
2022-10-09T23:43:24.134Z,26.58
2022-10-09T23:48:17.691Z,25.27
2022-10-09T23:53:11.710Z,26.33
2022-10-09T23:58:05.158Z,22.13
